sensor_id;sensor_type;location;lat;lon;timestamp;P1;durP1;ratioP1;P2;durP2;ratioP2
1993;SDS011;998;49.906;10.908;2023-05-02T00:01:15;8.23;;;7.00;;
1993;SDS011;998;49.906;10.908;2023-05-02T00:03:42;10.03;;;8.20;;
1993;SDS011;998;49.906;10.908;2023-05-02T00:06:09;12.33;;;8.00;;
1993;SDS011;998;49.906;10.908;2023-05-02T00:08:36;9.67;;;7.33;;
1993;SDS011;998;49.906;10.908;2023-05-02T00:11:03;9.13;;;7.00;;
1993;SDS011;998;49.906;10.908;2023-05-02T00:13:30;14.13;;;7.73;;
1993;SDS011;998;49.906;10.908;2023-05-02T00:15:57;12.23;;;8.07;;
1993;SDS011;998;49.906;10.908;2023-05-02T00:18:25;15.70;;;7.60;;
1993;SDS011;998;49.906;10.908;2023-05-02T00:20:52;12.77;;;7.87;;
1993;SDS011;998;49.906;10.908;2023-05-02T00:23:20;8.80;;;6.73;;
1993;SDS011;998;49.906;10.908;2023-05-02T00:25:47;15.53;;;9.17;;
1993;SDS011;998;49.906;10.908;2023-05-02T00:28:14;13.83;;;8.27;;
1993;SDS011;998;49.906;10.908;2023-05-02T00:30:41;12.70;;;8.70;;
1993;SDS011;998;49.906;10.908;2023-05-02T00:33:08;10.50;;;8.07;;
1993;SDS011;998;49.906;10.908;2023-05-02T00:35:37;13.80;;;7.63;;
1993;SDS011;998;49.906;10.908;2023-05-02T00:38:04;10.93;;;7.90;;
1993;SDS011;998;49.906;10.908;2023-05-02T00:40:40;10.50;;;8.10;;
1993;SDS011;998;49.906;10.908;2023-05-02T00:43:08;12.10;;;8.60;;
1993;SDS011;998;49.906;10.908;2023-05-02T00:45:35;13.50;;;8.30;;
1993;SDS011;998;49.906;10.908;2023-05-02T00:48:04;10.30;;;8.33;;
1993;SDS011;998;49.906;10.908;2023-05-02T00:50:32;13.00;;;8.67;;
1993;SDS011;998;49.906;10.908;2023-05-02T00:53:02;13.90;;;10.50;;
1993;SDS011;998;49.906;10.908;2023-05-02T00:55:30;15.80;;;11.77;;
1993;SDS011;998;49.906;10.908;2023-05-02T00:57:58;13.60;;;10.43;;
1993;SDS011;998;49.906;10.908;2023-05-02T01:00:26;12.40;;;8.87;;
1993;SDS011;998;49.906;10.908;2023-05-02T01:03:04;12.30;;;7.93;;
1993;SDS011;998;49.906;10.908;2023-05-02T01:05:43;12.10;;;7.70;;
1993;SDS011;998;49.906;10.908;2023-05-02T01:08:23;12.20;;;8.60;;
1993;SDS011;998;49.906;10.908;2023-05-02T01:11:11;12.13;;;8.10;;
1993;SDS011;998;49.906;10.908;2023-05-02T01:13:41;11.63;;;8.07;;
1993;SDS011;998;49.906;10.908;2023-05-02T01:16:13;10.97;;;8.20;;
1993;SDS011;998;49.906;10.908;2023-05-02T01:18:42;16.40;;;9.30;;
1993;SDS011;998;49.906;10.908;2023-05-02T01:21:12;14.43;;;8.20;;
1993;SDS011;998;49.906;10.908;2023-05-02T01:23:42;14.20;;;9.10;;
1993;SDS011;998;49.906;10.908;2023-05-02T01:26:20;13.77;;;8.97;;
1993;SDS011;998;49.906;10.908;2023-05-02T01:28:57;12.60;;;8.80;;
1993;SDS011;998;49.906;10.908;2023-05-02T01:31:25;11.07;;;8.50;;
1993;SDS011;998;49.906;10.908;2023-05-02T01:33:54;10.33;;;8.30;;
1993;SDS011;998;49.906;10.908;2023-05-02T01:36:24;13.13;;;8.67;;
1993;SDS011;998;49.906;10.908;2023-05-02T01:38:54;10.83;;;7.57;;
1993;SDS011;998;49.906;10.908;2023-05-02T01:41:23;11.30;;;6.87;;
1993;SDS011;998;49.906;10.908;2023-05-02T01:43:52;10.33;;;7.60;;
1993;SDS011;998;49.906;10.908;2023-05-02T01:46:24;12.67;;;7.67;;
1993;SDS011;998;49.906;10.908;2023-05-02T01:48:52;9.50;;;7.30;;
1993;SDS011;998;49.906;10.908;2023-05-02T01:51:22;15.23;;;11.00;;
1993;SDS011;998;49.906;10.908;2023-05-02T01:53:54;14.17;;;10.00;;
1993;SDS011;998;49.906;10.908;2023-05-02T01:56:24;10.13;;;7.60;;
1993;SDS011;998;49.906;10.908;2023-05-02T01:58:51;11.00;;;7.10;;
1993;SDS011;998;49.906;10.908;2023-05-02T02:01:20;11.57;;;8.30;;
1993;SDS011;998;49.906;10.908;2023-05-02T02:03:51;16.47;;;8.70;;
1993;SDS011;998;49.906;10.908;2023-05-02T02:06:19;11.90;;;8.50;;
1993;SDS011;998;49.906;10.908;2023-05-02T02:08:47;8.53;;;7.33;;
1993;SDS011;998;49.906;10.908;2023-05-02T02:11:16;11.53;;;8.77;;
1993;SDS011;998;49.906;10.908;2023-05-02T02:13:48;11.63;;;8.40;;
1993;SDS011;998;49.906;10.908;2023-05-02T02:16:29;11.57;;;8.87;;
1993;SDS011;998;49.906;10.908;2023-05-02T02:19:00;13.83;;;7.73;;
1993;SDS011;998;49.906;10.908;2023-05-02T02:21:33;13.73;;;7.97;;
1993;SDS011;998;49.906;10.908;2023-05-02T02:24:02;12.13;;;8.50;;
1993;SDS011;998;49.906;10.908;2023-05-02T02:26:31;9.97;;;7.67;;
1993;SDS011;998;49.906;10.908;2023-05-02T02:28:59;12.60;;;9.17;;
1993;SDS011;998;49.906;10.908;2023-05-02T02:31:30;11.70;;;9.23;;
1993;SDS011;998;49.906;10.908;2023-05-02T02:33:58;11.50;;;7.63;;
1993;SDS011;998;49.906;10.908;2023-05-02T02:36:27;10.30;;;7.83;;
1993;SDS011;998;49.906;10.908;2023-05-02T02:39:01;10.83;;;7.73;;
1993;SDS011;998;49.906;10.908;2023-05-02T02:41:38;9.73;;;7.80;;
1993;SDS011;998;49.906;10.908;2023-05-02T02:44:13;10.17;;;7.70;;
1993;SDS011;998;49.906;10.908;2023-05-02T02:46:58;10.83;;;7.20;;
1993;SDS011;998;49.906;10.908;2023-05-02T02:49:31;12.87;;;8.27;;
1993;SDS011;998;49.906;10.908;2023-05-02T02:52:05;12.10;;;8.83;;
1993;SDS011;998;49.906;10.908;2023-05-02T02:54:40;13.10;;;8.70;;
1993;SDS011;998;49.906;10.908;2023-05-02T02:57:14;11.23;;;8.53;;
1993;SDS011;998;49.906;10.908;2023-05-02T02:59:47;10.80;;;7.70;;
1993;SDS011;998;49.906;10.908;2023-05-02T03:02:26;10.13;;;7.53;;
1993;SDS011;998;49.906;10.908;2023-05-02T03:04:56;13.03;;;7.70;;
1993;SDS011;998;49.906;10.908;2023-05-02T03:07:26;9.37;;;7.30;;
1993;SDS011;998;49.906;10.908;2023-05-02T03:09:53;11.57;;;7.83;;
1993;SDS011;998;49.906;10.908;2023-05-02T03:12:20;11.40;;;7.60;;
1993;SDS011;998;49.906;10.908;2023-05-02T03:14:47;13.07;;;8.30;;
1993;SDS011;998;49.906;10.908;2023-05-02T03:17:14;12.43;;;7.50;;
1993;SDS011;998;49.906;10.908;2023-05-02T03:19:42;9.57;;;8.10;;
1993;SDS011;998;49.906;10.908;2023-05-02T03:22:09;14.63;;;8.83;;
1993;SDS011;998;49.906;10.908;2023-05-02T03:24:36;14.13;;;7.83;;
1993;SDS011;998;49.906;10.908;2023-05-02T03:27:02;10.77;;;8.07;;
1993;SDS011;998;49.906;10.908;2023-05-02T03:29:29;9.50;;;8.00;;
1993;SDS011;998;49.906;10.908;2023-05-02T03:31:56;8.73;;;7.63;;
1993;SDS011;998;49.906;10.908;2023-05-02T03:34:23;10.03;;;8.00;;
1993;SDS011;998;49.906;10.908;2023-05-02T03:36:51;9.20;;;7.80;;
1993;SDS011;998;49.906;10.908;2023-05-02T03:39:18;11.37;;;8.13;;
1993;SDS011;998;49.906;10.908;2023-05-02T03:41:44;9.50;;;7.67;;
1993;SDS011;998;49.906;10.908;2023-05-02T03:44:11;15.40;;;8.80;;
1993;SDS011;998;49.906;10.908;2023-05-02T03:46:38;12.07;;;8.47;;
1993;SDS011;998;49.906;10.908;2023-05-02T03:49:05;10.83;;;8.53;;
1993;SDS011;998;49.906;10.908;2023-05-02T03:51:32;10.37;;;8.10;;
1993;SDS011;998;49.906;10.908;2023-05-02T03:54:01;12.33;;;8.80;;
1993;SDS011;998;49.906;10.908;2023-05-02T03:56:28;10.70;;;8.20;;
1993;SDS011;998;49.906;10.908;2023-05-02T03:58:55;13.33;;;8.30;;
1993;SDS011;998;49.906;10.908;2023-05-02T04:01:22;9.70;;;8.00;;
1993;SDS011;998;49.906;10.908;2023-05-02T04:03:48;12.77;;;8.90;;
1993;SDS011;998;49.906;10.908;2023-05-02T04:06:18;11.63;;;8.17;;
1993;SDS011;998;49.906;10.908;2023-05-02T04:08:45;12.90;;;8.10;;
1993;SDS011;998;49.906;10.908;2023-05-02T04:11:13;11.57;;;8.73;;
1993;SDS011;998;49.906;10.908;2023-05-02T04:13:40;11.27;;;8.53;;
1993;SDS011;998;49.906;10.908;2023-05-02T04:16:07;12.40;;;9.07;;
1993;SDS011;998;49.906;10.908;2023-05-02T04:18:34;15.30;;;8.93;;
1993;SDS011;998;49.906;10.908;2023-05-02T04:21:01;9.67;;;7.90;;
1993;SDS011;998;49.906;10.908;2023-05-02T04:23:28;12.53;;;7.27;;
1993;SDS011;998;49.906;10.908;2023-05-02T04:25:55;13.90;;;8.53;;
1993;SDS011;998;49.906;10.908;2023-05-02T04:28:23;11.90;;;7.70;;
1993;SDS011;998;49.906;10.908;2023-05-02T04:30:50;12.67;;;8.10;;
1993;SDS011;998;49.906;10.908;2023-05-02T04:33:17;11.10;;;7.87;;
1993;SDS011;998;49.906;10.908;2023-05-02T04:35:44;22.50;;;8.80;;
1993;SDS011;998;49.906;10.908;2023-05-02T04:38:11;12.57;;;9.10;;
1993;SDS011;998;49.906;10.908;2023-05-02T04:40:38;12.10;;;8.03;;
1993;SDS011;998;49.906;10.908;2023-05-02T04:43:04;10.47;;;8.40;;
1993;SDS011;998;49.906;10.908;2023-05-02T04:45:34;13.53;;;10.30;;
1993;SDS011;998;49.906;10.908;2023-05-02T04:48:01;13.70;;;8.30;;
1993;SDS011;998;49.906;10.908;2023-05-02T04:50:28;11.57;;;8.80;;
1993;SDS011;998;49.906;10.908;2023-05-02T04:52:56;14.20;;;9.13;;
1993;SDS011;998;49.906;10.908;2023-05-02T04:55:23;10.83;;;8.33;;
1993;SDS011;998;49.906;10.908;2023-05-02T04:57:50;12.40;;;8.83;;
1993;SDS011;998;49.906;10.908;2023-05-02T05:00:17;11.87;;;9.60;;
1993;SDS011;998;49.906;10.908;2023-05-02T05:02:45;13.60;;;10.20;;
1993;SDS011;998;49.906;10.908;2023-05-02T05:05:11;15.77;;;9.60;;
1993;SDS011;998;49.906;10.908;2023-05-02T05:07:38;11.40;;;9.10;;
1993;SDS011;998;49.906;10.908;2023-05-02T05:10:06;15.83;;;9.17;;
1993;SDS011;998;49.906;10.908;2023-05-02T05:12:35;13.23;;;9.13;;
1993;SDS011;998;49.906;10.908;2023-05-02T05:15:02;11.40;;;8.20;;
1993;SDS011;998;49.906;10.908;2023-05-02T05:17:29;12.30;;;8.73;;
1993;SDS011;998;49.906;10.908;2023-05-02T05:19:57;11.30;;;8.63;;
1993;SDS011;998;49.906;10.908;2023-05-02T05:22:24;11.47;;;8.63;;
1993;SDS011;998;49.906;10.908;2023-05-02T05:24:51;11.10;;;9.23;;
1993;SDS011;998;49.906;10.908;2023-05-02T05:27:18;13.37;;;8.73;;
1993;SDS011;998;49.906;10.908;2023-05-02T05:29:46;18.07;;;8.60;;
1993;SDS011;998;49.906;10.908;2023-05-02T05:32:13;12.73;;;9.53;;
1993;SDS011;998;49.906;10.908;2023-05-02T05:34:39;12.20;;;8.63;;
1993;SDS011;998;49.906;10.908;2023-05-02T05:37:07;11.53;;;8.97;;
1993;SDS011;998;49.906;10.908;2023-05-02T05:39:34;13.67;;;8.90;;
1993;SDS011;998;49.906;10.908;2023-05-02T05:42:02;10.20;;;9.07;;
1993;SDS011;998;49.906;10.908;2023-05-02T05:44:30;11.70;;;9.47;;
1993;SDS011;998;49.906;10.908;2023-05-02T05:46:56;12.40;;;8.60;;
1993;SDS011;998;49.906;10.908;2023-05-02T05:49:23;12.63;;;10.20;;
1993;SDS011;998;49.906;10.908;2023-05-02T05:51:52;13.70;;;9.67;;
1993;SDS011;998;49.906;10.908;2023-05-02T05:54:20;15.00;;;8.60;;
1993;SDS011;998;49.906;10.908;2023-05-02T05:56:47;15.33;;;12.10;;
1993;SDS011;998;49.906;10.908;2023-05-02T05:59:14;10.57;;;9.27;;
1993;SDS011;998;49.906;10.908;2023-05-02T06:01:41;13.17;;;9.80;;
1993;SDS011;998;49.906;10.908;2023-05-02T06:04:08;13.40;;;8.47;;
1993;SDS011;998;49.906;10.908;2023-05-02T06:06:34;13.53;;;8.00;;
1993;SDS011;998;49.906;10.908;2023-05-02T06:09:01;12.73;;;8.80;;
1993;SDS011;998;49.906;10.908;2023-05-02T06:11:30;13.33;;;8.50;;
1993;SDS011;998;49.906;10.908;2023-05-02T06:13:57;12.70;;;8.67;;
1993;SDS011;998;49.906;10.908;2023-05-02T06:16:24;13.07;;;8.50;;
1993;SDS011;998;49.906;10.908;2023-05-02T06:18:51;11.17;;;8.30;;
1993;SDS011;998;49.906;10.908;2023-05-02T06:21:18;11.03;;;8.30;;
1993;SDS011;998;49.906;10.908;2023-05-02T06:23:44;12.00;;;8.80;;
1993;SDS011;998;49.906;10.908;2023-05-02T06:26:11;21.80;;;8.83;;
1993;SDS011;998;49.906;10.908;2023-05-02T06:28:39;12.20;;;8.70;;
1993;SDS011;998;49.906;10.908;2023-05-02T06:31:06;12.80;;;9.97;;
1993;SDS011;998;49.906;10.908;2023-05-02T06:33:33;11.63;;;8.07;;
1993;SDS011;998;49.906;10.908;2023-05-02T06:36:00;11.57;;;9.13;;
1993;SDS011;998;49.906;10.908;2023-05-02T06:38:27;12.43;;;8.53;;
1993;SDS011;998;49.906;10.908;2023-05-02T06:40:55;12.93;;;9.23;;
1993;SDS011;998;49.906;10.908;2023-05-02T06:43:21;17.70;;;9.80;;
1993;SDS011;998;49.906;10.908;2023-05-02T06:45:52;11.13;;;8.87;;
1993;SDS011;998;49.906;10.908;2023-05-02T06:48:20;12.77;;;8.70;;
1993;SDS011;998;49.906;10.908;2023-05-02T06:50:47;19.83;;;9.77;;
1993;SDS011;998;49.906;10.908;2023-05-02T06:53:13;12.10;;;8.87;;
1993;SDS011;998;49.906;10.908;2023-05-02T06:55:40;11.87;;;8.50;;
1993;SDS011;998;49.906;10.908;2023-05-02T06:58:07;16.57;;;9.80;;
1993;SDS011;998;49.906;10.908;2023-05-02T07:00:34;14.13;;;9.70;;
1993;SDS011;998;49.906;10.908;2023-05-02T07:03:02;11.20;;;9.40;;
1993;SDS011;998;49.906;10.908;2023-05-02T07:05:29;13.10;;;8.83;;
1993;SDS011;998;49.906;10.908;2023-05-02T07:07:56;10.70;;;9.20;;
1993;SDS011;998;49.906;10.908;2023-05-02T07:10:22;12.13;;;9.43;;
1993;SDS011;998;49.906;10.908;2023-05-02T07:12:49;13.30;;;10.57;;
1993;SDS011;998;49.906;10.908;2023-05-02T07:15:16;14.40;;;9.10;;
1993;SDS011;998;49.906;10.908;2023-05-02T07:17:43;17.20;;;10.83;;
1993;SDS011;998;49.906;10.908;2023-05-02T07:20:13;18.70;;;11.87;;
1993;SDS011;998;49.906;10.908;2023-05-02T07:22:40;15.40;;;10.50;;
1993;SDS011;998;49.906;10.908;2023-05-02T07:25:07;14.77;;;10.47;;
1993;SDS011;998;49.906;10.908;2023-05-02T07:27:34;15.67;;;10.27;;
1993;SDS011;998;49.906;10.908;2023-05-02T07:30:01;13.93;;;9.37;;
1993;SDS011;998;49.906;10.908;2023-05-02T07:32:28;15.00;;;9.60;;
1993;SDS011;998;49.906;10.908;2023-05-02T07:34:56;13.83;;;10.40;;
1993;SDS011;998;49.906;10.908;2023-05-02T07:37:24;12.80;;;9.97;;
1993;SDS011;998;49.906;10.908;2023-05-02T07:39:51;14.50;;;10.17;;
1993;SDS011;998;49.906;10.908;2023-05-02T07:42:17;12.93;;;10.23;;
1993;SDS011;998;49.906;10.908;2023-05-02T07:44:44;13.27;;;10.53;;
1993;SDS011;998;49.906;10.908;2023-05-02T07:47:11;14.80;;;10.13;;
1993;SDS011;998;49.906;10.908;2023-05-02T07:49:38;13.47;;;10.90;;
1993;SDS011;998;49.906;10.908;2023-05-02T07:52:04;13.77;;;9.67;;
1993;SDS011;998;49.906;10.908;2023-05-02T07:54:32;14.23;;;10.40;;
1993;SDS011;998;49.906;10.908;2023-05-02T07:56:59;14.63;;;9.50;;
1993;SDS011;998;49.906;10.908;2023-05-02T07:59:28;16.67;;;9.97;;
1993;SDS011;998;49.906;10.908;2023-05-02T08:01:56;15.50;;;11.50;;
1993;SDS011;998;49.906;10.908;2023-05-02T08:04:23;14.80;;;11.83;;
1993;SDS011;998;49.906;10.908;2023-05-02T08:06:50;16.33;;;10.10;;
1993;SDS011;998;49.906;10.908;2023-05-02T08:09:16;15.27;;;10.10;;
1993;SDS011;998;49.906;10.908;2023-05-02T08:11:44;10.83;;;8.90;;
1993;SDS011;998;49.906;10.908;2023-05-02T08:14:11;14.80;;;10.20;;
1993;SDS011;998;49.906;10.908;2023-05-02T08:16:38;12.03;;;9.20;;
1993;SDS011;998;49.906;10.908;2023-05-02T08:19:05;15.40;;;10.57;;
1993;SDS011;998;49.906;10.908;2023-05-02T08:21:32;15.07;;;10.40;;
1993;SDS011;998;49.906;10.908;2023-05-02T08:23:59;12.07;;;9.70;;
1993;SDS011;998;49.906;10.908;2023-05-02T08:26:27;13.23;;;9.50;;
1993;SDS011;998;49.906;10.908;2023-05-02T08:28:55;15.63;;;11.00;;
1993;SDS011;998;49.906;10.908;2023-05-02T08:31:22;18.50;;;10.80;;
1993;SDS011;998;49.906;10.908;2023-05-02T08:33:49;13.90;;;10.30;;
1993;SDS011;998;49.906;10.908;2023-05-02T08:36:16;12.10;;;9.50;;
1993;SDS011;998;49.906;10.908;2023-05-02T08:38:44;14.03;;;9.37;;
1993;SDS011;998;49.906;10.908;2023-05-02T08:41:11;14.77;;;10.27;;
1993;SDS011;998;49.906;10.908;2023-05-02T08:43:39;11.80;;;9.90;;
1993;SDS011;998;49.906;10.908;2023-05-02T08:46:08;12.10;;;9.40;;
1993;SDS011;998;49.906;10.908;2023-05-02T08:48:36;15.13;;;9.60;;
1993;SDS011;998;49.906;10.908;2023-05-02T08:51:07;10.07;;;8.83;;
1993;SDS011;998;49.906;10.908;2023-05-02T08:53:35;11.67;;;8.60;;
1993;SDS011;998;49.906;10.908;2023-05-02T08:56:02;13.40;;;8.23;;
1993;SDS011;998;49.906;10.908;2023-05-02T08:58:30;11.00;;;8.40;;
1993;SDS011;998;49.906;10.908;2023-05-02T09:00:57;13.43;;;9.53;;
1993;SDS011;998;49.906;10.908;2023-05-02T09:03:29;14.13;;;9.20;;
1993;SDS011;998;49.906;10.908;2023-05-02T09:06:02;11.37;;;8.30;;
1993;SDS011;998;49.906;10.908;2023-05-02T09:08:31;13.23;;;8.10;;
1993;SDS011;998;49.906;10.908;2023-05-02T09:10:58;10.77;;;8.10;;
1993;SDS011;998;49.906;10.908;2023-05-02T09:13:32;9.40;;;7.93;;
1993;SDS011;998;49.906;10.908;2023-05-02T09:16:01;9.30;;;7.40;;
1993;SDS011;998;49.906;10.908;2023-05-02T09:18:31;9.63;;;7.57;;
1993;SDS011;998;49.906;10.908;2023-05-02T09:21:02;9.77;;;7.40;;
1993;SDS011;998;49.906;10.908;2023-05-02T09:23:36;7.87;;;6.77;;
1993;SDS011;998;49.906;10.908;2023-05-02T09:26:11;9.97;;;6.67;;
1993;SDS011;998;49.906;10.908;2023-05-02T09:28:43;8.70;;;7.13;;
1993;SDS011;998;49.906;10.908;2023-05-02T09:31:12;8.30;;;6.40;;
1993;SDS011;998;49.906;10.908;2023-05-02T09:33:41;11.87;;;6.57;;
1993;SDS011;998;49.906;10.908;2023-05-02T09:36:10;8.27;;;6.53;;
1993;SDS011;998;49.906;10.908;2023-05-02T09:38:39;7.20;;;5.33;;
1993;SDS011;998;49.906;10.908;2023-05-02T09:41:06;8.67;;;5.80;;
1993;SDS011;998;49.906;10.908;2023-05-02T09:43:32;7.70;;;6.10;;
1993;SDS011;998;49.906;10.908;2023-05-02T09:46:00;8.43;;;6.03;;
1993;SDS011;998;49.906;10.908;2023-05-02T09:48:28;9.23;;;6.40;;
1993;SDS011;998;49.906;10.908;2023-05-02T09:50:57;8.03;;;5.80;;
1993;SDS011;998;49.906;10.908;2023-05-02T09:53:25;8.03;;;5.57;;
1993;SDS011;998;49.906;10.908;2023-05-02T09:55:59;9.37;;;5.40;;
1993;SDS011;998;49.906;10.908;2023-05-02T09:58:29;8.40;;;5.30;;
1993;SDS011;998;49.906;10.908;2023-05-02T10:00:57;9.13;;;6.03;;
1993;SDS011;998;49.906;10.908;2023-05-02T10:03:25;7.73;;;5.50;;
1993;SDS011;998;49.906;10.908;2023-05-02T10:05:53;9.20;;;5.80;;
1993;SDS011;998;49.906;10.908;2023-05-02T10:08:23;7.43;;;5.50;;
1993;SDS011;998;49.906;10.908;2023-05-02T10:10:52;9.40;;;5.07;;
1993;SDS011;998;49.906;10.908;2023-05-02T10:13:21;6.90;;;4.47;;
1993;SDS011;998;49.906;10.908;2023-05-02T10:15:53;10.03;;;7.03;;
1993;SDS011;998;49.906;10.908;2023-05-02T10:18:28;4.20;;;3.07;;
1993;SDS011;998;49.906;10.908;2023-05-02T10:20:58;6.70;;;5.50;;
1993;SDS011;998;49.906;10.908;2023-05-02T10:23:31;6.40;;;3.97;;
1993;SDS011;998;49.906;10.908;2023-05-02T10:25:59;5.30;;;4.13;;
1993;SDS011;998;49.906;10.908;2023-05-02T10:28:27;8.63;;;5.33;;
1993;SDS011;998;49.906;10.908;2023-05-02T10:30:55;7.00;;;5.17;;
1993;SDS011;998;49.906;10.908;2023-05-02T10:33:23;18.57;;;4.50;;
1993;SDS011;998;49.906;10.908;2023-05-02T10:35:50;8.30;;;4.80;;
1993;SDS011;998;49.906;10.908;2023-05-02T10:38:18;5.80;;;4.97;;
1993;SDS011;998;49.906;10.908;2023-05-02T10:40:50;7.93;;;5.70;;
1993;SDS011;998;49.906;10.908;2023-05-02T10:43:21;6.00;;;5.10;;
1993;SDS011;998;49.906;10.908;2023-05-02T10:45:51;7.80;;;5.23;;
1993;SDS011;998;49.906;10.908;2023-05-02T10:48:19;7.70;;;5.23;;
1993;SDS011;998;49.906;10.908;2023-05-02T10:50:48;7.63;;;5.97;;
1993;SDS011;998;49.906;10.908;2023-05-02T10:53:31;7.30;;;6.30;;
1993;SDS011;998;49.906;10.908;2023-05-02T10:56:08;7.13;;;5.43;;
1993;SDS011;998;49.906;10.908;2023-05-02T10:58:41;8.90;;;5.53;;
1993;SDS011;998;49.906;10.908;2023-05-02T11:04:07;7.90;;;6.30;;
1993;SDS011;998;49.906;10.908;2023-05-02T11:06:35;5.70;;;5.03;;
1993;SDS011;998;49.906;10.908;2023-05-02T11:09:29;6.93;;;5.20;;
1993;SDS011;998;49.906;10.908;2023-05-02T11:11:59;9.70;;;5.60;;
1993;SDS011;998;49.906;10.908;2023-05-02T11:14:45;8.57;;;5.80;;
1993;SDS011;998;49.906;10.908;2023-05-02T11:17:13;9.83;;;7.60;;
1993;SDS011;998;49.906;10.908;2023-05-02T11:22:54;6.80;;;5.43;;
1993;SDS011;998;49.906;10.908;2023-05-02T11:25:29;7.80;;;5.00;;
1993;SDS011;998;49.906;10.908;2023-05-02T11:27:59;7.40;;;5.87;;
1993;SDS011;998;49.906;10.908;2023-05-02T11:30:35;7.80;;;5.07;;
1993;SDS011;998;49.906;10.908;2023-05-02T11:33:10;7.77;;;5.70;;
1993;SDS011;998;49.906;10.908;2023-05-02T11:35:41;6.17;;;4.87;;
1993;SDS011;998;49.906;10.908;2023-05-02T11:38:10;7.73;;;5.70;;
1993;SDS011;998;49.906;10.908;2023-05-02T11:40:38;11.53;;;5.63;;
1993;SDS011;998;49.906;10.908;2023-05-02T11:43:13;7.60;;;5.00;;
1993;SDS011;998;49.906;10.908;2023-05-02T11:45:42;7.60;;;5.70;;
1993;SDS011;998;49.906;10.908;2023-05-02T11:48:09;8.53;;;5.67;;
1993;SDS011;998;49.906;10.908;2023-05-02T11:50:41;7.80;;;5.80;;
1993;SDS011;998;49.906;10.908;2023-05-02T11:53:11;9.77;;;6.50;;
1993;SDS011;998;49.906;10.908;2023-05-02T11:55:43;9.23;;;6.53;;
1993;SDS011;998;49.906;10.908;2023-05-02T11:58:13;7.57;;;5.93;;
1993;SDS011;998;49.906;10.908;2023-05-02T12:00:41;9.43;;;5.47;;
1993;SDS011;998;49.906;10.908;2023-05-02T12:03:18;10.23;;;6.90;;
1993;SDS011;998;49.906;10.908;2023-05-02T12:05:46;6.63;;;5.53;;
1993;SDS011;998;49.906;10.908;2023-05-02T12:08:17;8.43;;;6.70;;
1993;SDS011;998;49.906;10.908;2023-05-02T12:10:44;10.70;;;8.47;;
1993;SDS011;998;49.906;10.908;2023-05-02T12:13:13;12.03;;;10.53;;
1993;SDS011;998;49.906;10.908;2023-05-02T12:15:40;14.17;;;10.07;;
1993;SDS011;998;49.906;10.908;2023-05-02T12:18:07;9.33;;;7.43;;
1993;SDS011;998;49.906;10.908;2023-05-02T12:20:34;10.77;;;7.47;;
1993;SDS011;998;49.906;10.908;2023-05-02T12:23:03;16.17;;;6.90;;
1993;SDS011;998;49.906;10.908;2023-05-02T12:25:30;7.03;;;6.00;;
1993;SDS011;998;49.906;10.908;2023-05-02T12:27:58;6.60;;;5.33;;
1993;SDS011;998;49.906;10.908;2023-05-02T12:30:27;6.87;;;5.37;;
1993;SDS011;998;49.906;10.908;2023-05-02T12:32:57;7.13;;;5.40;;
1993;SDS011;998;49.906;10.908;2023-05-02T12:35:25;7.87;;;5.67;;
1993;SDS011;998;49.906;10.908;2023-05-02T12:37:52;8.67;;;6.07;;
1993;SDS011;998;49.906;10.908;2023-05-02T12:40:20;6.67;;;4.63;;
1993;SDS011;998;49.906;10.908;2023-05-02T12:42:57;5.27;;;3.70;;
1993;SDS011;998;49.906;10.908;2023-05-02T12:45:26;8.23;;;4.87;;
1993;SDS011;998;49.906;10.908;2023-05-02T12:47:55;11.13;;;5.97;;
1993;SDS011;998;49.906;10.908;2023-05-02T12:50:33;6.43;;;4.80;;
1993;SDS011;998;49.906;10.908;2023-05-02T12:53:01;6.17;;;4.63;;
1993;SDS011;998;49.906;10.908;2023-05-02T12:55:28;5.87;;;4.00;;
1993;SDS011;998;49.906;10.908;2023-05-02T12:57:59;5.37;;;3.43;;
1993;SDS011;998;49.906;10.908;2023-05-02T13:00:28;5.57;;;3.37;;
1993;SDS011;998;49.906;10.908;2023-05-02T13:02:55;3.67;;;2.73;;
1993;SDS011;998;49.906;10.908;2023-05-02T13:05:22;4.40;;;2.90;;
1993;SDS011;998;49.906;10.908;2023-05-02T13:07:49;5.10;;;3.00;;
1993;SDS011;998;49.906;10.908;2023-05-02T13:10:17;3.83;;;3.00;;
1993;SDS011;998;49.906;10.908;2023-05-02T13:12:44;4.90;;;3.00;;
1993;SDS011;998;49.906;10.908;2023-05-02T13:15:12;3.50;;;2.53;;
1993;SDS011;998;49.906;10.908;2023-05-02T13:17:40;3.47;;;2.40;;
1993;SDS011;998;49.906;10.908;2023-05-02T13:20:07;3.90;;;2.73;;
1993;SDS011;998;49.906;10.908;2023-05-02T13:22:35;7.40;;;3.47;;
1993;SDS011;998;49.906;10.908;2023-05-02T13:25:02;6.07;;;3.57;;
1993;SDS011;998;49.906;10.908;2023-05-02T13:27:29;5.10;;;3.23;;
1993;SDS011;998;49.906;10.908;2023-05-02T13:29:58;5.03;;;3.57;;
1993;SDS011;998;49.906;10.908;2023-05-02T13:32:25;5.33;;;3.60;;
1993;SDS011;998;49.906;10.908;2023-05-02T13:34:53;6.60;;;4.73;;
1993;SDS011;998;49.906;10.908;2023-05-02T13:37:21;6.80;;;5.07;;
1993;SDS011;998;49.906;10.908;2023-05-02T13:39:47;6.90;;;4.30;;
1993;SDS011;998;49.906;10.908;2023-05-02T13:42:14;6.00;;;4.60;;
1993;SDS011;998;49.906;10.908;2023-05-02T13:44:41;6.10;;;5.30;;
1993;SDS011;998;49.906;10.908;2023-05-02T13:47:08;6.63;;;5.13;;
1993;SDS011;998;49.906;10.908;2023-05-02T13:49:35;8.27;;;5.20;;
1993;SDS011;998;49.906;10.908;2023-05-02T13:52:03;5.43;;;4.60;;
1993;SDS011;998;49.906;10.908;2023-05-02T13:54:30;7.87;;;4.77;;
1993;SDS011;998;49.906;10.908;2023-05-02T13:56:56;6.07;;;5.27;;
1993;SDS011;998;49.906;10.908;2023-05-02T13:59:23;6.10;;;4.90;;
1993;SDS011;998;49.906;10.908;2023-05-02T14:01:50;6.30;;;5.23;;
1993;SDS011;998;49.906;10.908;2023-05-02T14:04:17;8.00;;;5.43;;
1993;SDS011;998;49.906;10.908;2023-05-02T14:06:44;7.47;;;5.57;;
1993;SDS011;998;49.906;10.908;2023-05-02T14:09:12;6.60;;;3.90;;
1993;SDS011;998;49.906;10.908;2023-05-02T14:11:39;12.03;;;9.10;;
1993;SDS011;998;49.906;10.908;2023-05-02T14:14:08;5.97;;;4.60;;
1993;SDS011;998;49.906;10.908;2023-05-02T14:16:36;9.90;;;6.10;;
1993;SDS011;998;49.906;10.908;2023-05-02T14:19:03;5.47;;;4.27;;
1993;SDS011;998;49.906;10.908;2023-05-02T14:21:30;8.17;;;4.97;;
1993;SDS011;998;49.906;10.908;2023-05-02T14:23:57;6.23;;;4.60;;
1993;SDS011;998;49.906;10.908;2023-05-02T14:26:25;5.90;;;4.13;;
1993;SDS011;998;49.906;10.908;2023-05-02T14:28:52;5.03;;;3.90;;
1993;SDS011;998;49.906;10.908;2023-05-02T14:31:19;6.83;;;4.43;;
1993;SDS011;998;49.906;10.908;2023-05-02T14:33:45;6.63;;;4.80;;
1993;SDS011;998;49.906;10.908;2023-05-02T14:36:12;7.57;;;4.73;;
1993;SDS011;998;49.906;10.908;2023-05-02T14:38:39;6.70;;;4.63;;
1993;SDS011;998;49.906;10.908;2023-05-02T14:41:06;4.93;;;4.03;;
1993;SDS011;998;49.906;10.908;2023-05-02T14:43:34;8.20;;;4.53;;
1993;SDS011;998;49.906;10.908;2023-05-02T14:46:01;6.80;;;4.40;;
1993;SDS011;998;49.906;10.908;2023-05-02T14:48:28;7.13;;;4.63;;
1993;SDS011;998;49.906;10.908;2023-05-02T14:50:55;10.40;;;4.40;;
1993;SDS011;998;49.906;10.908;2023-05-02T14:53:22;5.73;;;4.20;;
1993;SDS011;998;49.906;10.908;2023-05-02T14:55:49;7.73;;;4.17;;
1993;SDS011;998;49.906;10.908;2023-05-02T14:58:16;5.43;;;3.30;;
1993;SDS011;998;49.906;10.908;2023-05-02T15:00:45;5.70;;;3.97;;
1993;SDS011;998;49.906;10.908;2023-05-02T15:03:12;4.97;;;4.10;;
1993;SDS011;998;49.906;10.908;2023-05-02T15:05:39;5.27;;;3.70;;
1993;SDS011;998;49.906;10.908;2023-05-02T15:08:06;5.87;;;3.90;;
1993;SDS011;998;49.906;10.908;2023-05-02T15:10:35;4.37;;;3.43;;
1993;SDS011;998;49.906;10.908;2023-05-02T15:13:02;6.00;;;4.03;;
1993;SDS011;998;49.906;10.908;2023-05-02T15:15:30;4.43;;;3.30;;
1993;SDS011;998;49.906;10.908;2023-05-02T15:17:58;4.40;;;3.70;;
1993;SDS011;998;49.906;10.908;2023-05-02T15:20:25;6.40;;;3.70;;